FLR weather

Peretola Airport
Firenze, Tuscany, Italy

Public forecast

Using degrees Celsius for public forecast. Weather courtesy of forecast.io.

Current aviation weather report (METAR) for Peretola Airport

Retrieved 2019/10/19 10:20 UTC (31 minutes ago):

LIRQ 191020Z VRB02KT 9999 FEW020 BKN045 21/15 Q1017

Aviation forecast (TAF) for Peretola Airport

Retrieved 2019/10/19 06:00 UTC (5 hours ago):

TAF LIRQ 190500Z 1906/2006 VRB05KT 9999 BKN030 BECMG 1910/1912 24010KT BECMG 1916/1918 VRB05KT